createdAt,value
2019-05-06T00:00:24.845Z,99.90
2019-05-06T00:02:54.447Z,99.90
2019-05-06T00:05:25.384Z,99.90
2019-05-06T00:07:54.433Z,99.90
2019-05-06T00:10:28.279Z,99.90
2019-05-06T00:12:57.180Z,99.90
2019-05-06T00:15:25.742Z,99.90
2019-05-06T00:17:54.322Z,99.90
2019-05-06T00:20:24.318Z,99.90
2019-05-06T00:22:57.398Z,99.90
2019-05-06T00:25:34.731Z,99.90
2019-05-06T00:28:10.148Z,99.90
2019-05-06T00:30:40.343Z,99.90
2019-05-06T00:33:08.778Z,99.90
2019-05-06T00:35:37.434Z,99.90
2019-05-06T00:38:05.871Z,99.90
2019-05-06T00:40:47.606Z,99.90
2019-05-06T00:43:16.045Z,99.90
2019-05-06T00:45:44.516Z,99.90
2019-05-06T00:48:13.958Z,99.90
2019-05-06T00:50:44.125Z,99.90
2019-05-06T00:53:14.284Z,99.90
2019-05-06T00:55:44.597Z,99.90
2019-05-06T00:58:14.254Z,99.90
2019-05-06T01:00:44.300Z,99.90
2019-05-06T01:03:14.096Z,99.90
2019-05-06T01:05:44.412Z,99.90
2019-05-06T01:08:14.135Z,99.90
2019-05-06T01:10:44.835Z,99.90
2019-05-06T01:13:29.684Z,99.90
2019-05-06T01:15:58.113Z,99.90
2019-05-06T01:18:26.600Z,99.90
2019-05-06T01:21:09.676Z,99.90
2019-05-06T01:23:43.705Z,99.90
2019-05-06T01:26:14.986Z,99.90
2019-05-06T01:28:44.706Z,99.90
2019-05-06T01:31:13.976Z,99.90
2019-05-06T01:33:45.005Z,99.90
2019-05-06T01:36:14.119Z,99.90
2019-05-06T01:38:50.965Z,99.90
2019-05-06T01:41:21.013Z,99.90
2019-05-06T01:43:49.513Z,99.90
2019-05-06T01:46:17.983Z,99.90
2019-05-06T01:48:49.082Z,99.90
2019-05-06T01:51:24.259Z,99.90
2019-05-06T01:53:54.457Z,99.90
2019-05-06T01:56:24.177Z,99.90
2019-05-06T01:58:53.657Z,99.90
2019-05-06T02:01:22.182Z,99.90
2019-05-06T02:03:50.821Z,99.90
2019-05-06T02:06:19.362Z,99.90
2019-05-06T02:08:47.843Z,99.90
2019-05-06T02:11:16.398Z,99.90
2019-05-06T02:13:45.388Z,99.90
2019-05-06T02:16:14.765Z,99.90
2019-05-06T02:18:44.915Z,99.90
2019-05-06T02:21:17.951Z,99.90
2019-05-06T02:23:47.224Z,99.90
2019-05-06T02:26:15.840Z,99.90
2019-05-06T02:28:45.924Z,99.90
2019-05-06T02:31:35.164Z,99.90
2019-05-06T02:34:05.067Z,99.90
2019-05-06T02:36:51.348Z,99.90
2019-05-06T02:39:23.365Z,99.90
2019-05-06T02:41:50.012Z,99.90
2019-05-06T02:44:18.525Z,99.90
2019-05-06T02:46:48.606Z,99.90
2019-05-06T02:49:18.771Z,99.90
2019-05-06T02:51:47.194Z,99.90
2019-05-06T02:54:15.736Z,99.90
2019-05-06T02:56:44.265Z,99.90
2019-05-06T02:59:13.038Z,99.90
2019-05-06T03:01:43.233Z,99.90
2019-05-06T03:04:13.194Z,99.90
2019-05-06T03:06:44.543Z,99.90
2019-05-06T03:09:13.491Z,99.90
2019-05-06T03:11:43.772Z,99.90
2019-05-06T03:14:13.859Z,99.90
2019-05-06T03:16:43.935Z,99.90
2019-05-06T03:19:13.481Z,99.90
2019-05-06T03:21:44.763Z,99.90
2019-05-06T03:24:18.006Z,99.90
2019-05-06T03:26:45.861Z,99.90
2019-05-06T03:29:14.411Z,99.90
2019-05-06T03:31:46.232Z,99.90
2019-05-06T03:34:35.456Z,99.90
2019-05-06T03:36:48.503Z,99.90
2019-05-06T03:39:13.977Z,99.90
2019-05-06T03:41:43.668Z,99.90
2019-05-06T03:44:16.301Z,99.90
2019-05-06T03:47:05.348Z,99.90
2019-05-06T03:49:37.603Z,99.90
2019-05-06T03:52:06.108Z,99.90
2019-05-06T03:54:35.507Z,99.90
2019-05-06T03:57:04.804Z,99.90
2019-05-06T03:59:34.005Z,99.90
2019-05-06T04:02:05.328Z,99.90
2019-05-06T04:04:33.355Z,99.90
2019-05-06T04:07:03.380Z,99.90
2019-05-06T04:09:36.329Z,99.90
2019-05-06T04:12:03.576Z,99.90
2019-05-06T04:14:33.752Z,99.90
2019-05-06T04:17:07.174Z,99.90
2019-05-06T04:19:40.084Z,99.90
2019-05-06T04:22:12.560Z,99.90
2019-05-06T04:24:44.520Z,99.90
2019-05-06T04:27:53.770Z,99.90
2019-05-06T04:30:24.281Z,99.90
2019-05-06T04:32:53.321Z,99.90
2019-05-06T04:35:22.997Z,99.90
2019-05-06T04:37:53.921Z,99.90
2019-05-06T04:40:23.784Z,99.90
2019-05-06T04:42:52.862Z,99.90
2019-05-06T04:45:23.538Z,99.90
2019-05-06T04:47:53.684Z,99.90
2019-05-06T04:50:24.131Z,99.90
2019-05-06T04:52:56.343Z,99.90
2019-05-06T04:55:24.876Z,99.90
2019-05-06T04:57:54.345Z,99.90
2019-05-06T05:00:23.369Z,99.90
2019-05-06T05:02:54.759Z,99.90
2019-05-06T05:05:23.187Z,99.90
2019-05-06T05:07:52.974Z,99.90
2019-05-06T05:10:26.377Z,99.90
2019-05-06T05:13:13.487Z,99.90
2019-05-06T05:15:49.540Z,99.90
2019-05-06T05:18:25.937Z,99.90
2019-05-06T05:20:54.510Z,99.90
2019-05-06T05:23:23.033Z,99.90
2019-05-06T05:25:52.197Z,99.90
2019-05-06T05:28:22.308Z,99.90
2019-05-06T05:30:52.186Z,99.90
2019-05-06T05:33:22.480Z,99.90
2019-05-06T05:35:52.540Z,99.90
2019-05-06T05:38:22.775Z,99.90
2019-05-06T05:40:52.620Z,99.90
2019-05-06T05:43:23.048Z,99.90
2019-05-06T05:45:52.354Z,99.90
2019-05-06T05:48:38.723Z,99.80
2019-05-06T05:51:07.326Z,99.30
2019-05-06T05:53:36.188Z,98.80
2019-05-06T05:56:04.985Z,98.50
2019-05-06T05:58:33.426Z,98.30
2019-05-06T06:01:04.110Z,97.90
2019-05-06T06:03:32.619Z,97.10
2019-05-06T06:06:03.035Z,96.10
2019-05-06T06:08:32.240Z,96.60
2019-05-06T06:11:17.735Z,96.50
2019-05-06T06:13:46.230Z,96.80
2019-05-06T06:16:19.482Z,96.30
2019-05-06T06:19:04.174Z,96.60
2019-05-06T06:21:37.315Z,96.40
2019-05-06T06:24:07.537Z,95.60
2019-05-06T06:26:36.051Z,95.80
2019-05-06T06:29:04.640Z,94.80
2019-05-06T06:31:46.652Z,95.00
2019-05-06T06:34:35.046Z,94.70
2019-05-06T06:37:22.601Z,94.50
2019-05-06T06:39:52.682Z,94.20
2019-05-06T06:42:22.188Z,93.10
2019-05-06T06:44:52.054Z,92.80
2019-05-06T06:47:22.462Z,92.60
2019-05-06T06:49:53.280Z,93.00
2019-05-06T06:52:23.145Z,92.60
2019-05-06T06:54:52.633Z,92.30
2019-05-06T06:57:26.139Z,91.40
2019-05-06T07:00:00.091Z,91.50
2019-05-06T07:02:32.678Z,91.30
2019-05-06T07:05:27.689Z,90.50
2019-05-06T07:07:47.987Z,89.50
2019-05-06T07:10:33.228Z,86.90
2019-05-06T07:13:02.853Z,85.90
2019-05-06T07:15:33.673Z,83.40
2019-05-06T07:18:02.499Z,82.10
2019-05-06T07:20:38.560Z,82.80
2019-05-06T07:23:23.817Z,82.20
2019-05-06T07:25:53.704Z,81.90
2019-05-06T07:28:23.333Z,81.10
2019-05-06T07:30:52.242Z,79.70
2019-05-06T07:33:22.948Z,77.80
2019-05-06T07:35:53.054Z,77.30
2019-05-06T07:38:23.150Z,76.90
2019-05-06T07:40:53.574Z,76.00
2019-05-06T07:43:33.886Z,77.50
2019-05-06T07:46:23.369Z,77.00
2019-05-06T07:48:51.901Z,79.60
2019-05-06T07:51:20.518Z,80.90
2019-05-06T07:53:48.970Z,82.20
2019-05-06T07:56:17.433Z,81.90
2019-05-06T07:58:45.860Z,82.10
2019-05-06T08:01:14.455Z,81.40
2019-05-06T08:03:43.298Z,79.20
2019-05-06T08:06:13.272Z,79.80
2019-05-06T08:08:43.322Z,77.70
2019-05-06T08:11:12.450Z,77.10
2019-05-06T08:13:43.210Z,75.00
2019-05-06T08:16:13.172Z,75.10
2019-05-06T08:18:42.528Z,74.40
2019-05-06T08:21:15.598Z,72.90
2019-05-06T08:23:45.664Z,71.80
2019-05-06T08:26:17.609Z,69.10
2019-05-06T08:28:44.709Z,72.80
2019-05-06T08:31:13.307Z,73.20
2019-05-06T08:33:43.172Z,74.80
2019-05-06T08:36:14.939Z,72.90
2019-05-06T08:39:02.834Z,66.60
2019-05-06T08:41:33.163Z,67.40
2019-05-06T08:44:02.675Z,70.30
2019-05-06T08:46:32.670Z,68.40
2019-05-06T08:49:03.107Z,67.50
2019-05-06T08:51:39.628Z,69.10
2019-05-06T08:54:27.620Z,65.10
2019-05-06T08:56:56.183Z,66.40
2019-05-06T08:59:24.658Z,66.30
2019-05-06T09:01:55.196Z,69.40
2019-05-06T09:04:23.747Z,69.40
2019-05-06T09:06:53.355Z,70.20
2019-05-06T09:09:22.515Z,70.60
2019-05-06T09:11:53.213Z,71.00
2019-05-06T09:14:23.234Z,71.20
2019-05-06T09:16:53.851Z,65.90
2019-05-06T09:19:23.280Z,61.50
2019-05-06T09:21:53.316Z,58.80
2019-05-06T09:24:23.018Z,58.50
2019-05-06T09:26:53.604Z,57.30
2019-05-06T09:29:38.610Z,57.30
2019-05-06T09:32:08.723Z,59.80
2019-05-06T09:34:38.930Z,60.80
2019-05-06T09:37:18.138Z,61.80
2019-05-06T09:39:46.863Z,64.20
2019-05-06T09:42:15.720Z,64.10
2019-05-06T09:44:45.429Z,64.40
2019-05-06T09:47:33.062Z,66.10
2019-05-06T09:50:02.791Z,66.90
2019-05-06T09:52:33.350Z,68.70
2019-05-06T09:55:18.363Z,68.10
2019-05-06T09:57:57.352Z,67.70
2019-05-06T10:00:28.228Z,67.10
2019-05-06T10:02:56.898Z,64.30
2019-05-06T10:05:25.410Z,63.10
2019-05-06T10:07:53.998Z,62.20
2019-05-06T10:10:22.565Z,62.30
2019-05-06T10:12:53.016Z,60.20
2019-05-06T10:15:21.990Z,61.20
2019-05-06T10:18:09.012Z,62.00
2019-05-06T10:20:43.210Z,62.30
2019-05-06T10:23:12.164Z,62.00
2019-05-06T10:25:43.374Z,61.40
2019-05-06T10:28:13.468Z,62.50
2019-05-06T10:30:42.124Z,63.10
2019-05-06T10:33:12.376Z,60.80
2019-05-06T10:35:42.861Z,60.00
2019-05-06T10:38:23.003Z,61.30
2019-05-06T10:41:00.760Z,61.00
2019-05-06T10:43:27.873Z,62.40
2019-05-06T10:45:56.351Z,61.80
2019-05-06T10:48:24.868Z,62.90
2019-05-06T10:50:57.401Z,62.40
2019-05-06T10:53:26.002Z,58.40
2019-05-06T10:55:55.813Z,57.80
2019-05-06T10:58:24.328Z,58.20
2019-05-06T11:00:54.646Z,57.50
2019-05-06T11:03:23.625Z,57.80
2019-05-06T11:05:53.507Z,58.20
2019-05-06T11:08:22.304Z,58.50
2019-05-06T11:10:53.178Z,58.00
2019-05-06T11:13:21.119Z,58.50
2019-05-06T11:15:49.599Z,59.70
2019-05-06T11:18:18.098Z,61.40
2019-05-06T11:20:46.656Z,63.10
2019-05-06T11:23:15.091Z,64.30
2019-05-06T11:25:43.596Z,64.50
2019-05-06T11:28:29.648Z,64.90
2019-05-06T11:31:02.248Z,63.70
2019-05-06T11:33:32.904Z,64.10
2019-05-06T11:36:05.679Z,62.50
2019-05-06T11:38:34.150Z,62.90
2019-05-06T11:41:02.800Z,63.10
2019-05-06T11:43:32.500Z,62.80
2019-05-06T11:46:01.146Z,60.90
2019-05-06T11:48:29.587Z,58.70
2019-05-06T11:50:59.763Z,58.40
2019-05-06T11:53:28.327Z,58.70
2019-05-06T11:55:56.852Z,57.90
2019-05-06T11:58:33.078Z,57.60
2019-05-06T12:01:03.408Z,57.30
2019-05-06T12:03:32.685Z,57.80
2019-05-06T12:06:03.698Z,56.80
2019-05-06T12:08:32.666Z,56.00
2019-05-06T12:11:02.949Z,55.10
2019-05-06T12:13:33.699Z,48.10
2019-05-06T12:16:02.463Z,45.80
2019-05-06T12:18:31.060Z,44.20
2019-05-06T12:21:09.142Z,45.70
2019-05-06T12:23:29.842Z,44.90
2019-05-06T12:25:58.358Z,44.90
2019-05-06T12:28:26.831Z,46.10
2019-05-06T12:30:56.487Z,45.60
2019-05-06T12:33:29.588Z,45.00
2019-05-06T12:35:59.795Z,45.40
2019-05-06T12:38:31.081Z,46.70
2019-05-06T12:41:00.119Z,46.10
2019-05-06T12:43:32.957Z,45.40
2019-05-06T12:46:05.497Z,45.40
2019-05-06T12:48:38.506Z,44.10
2019-05-06T12:51:07.040Z,44.20
2019-05-06T12:53:35.536Z,44.70
2019-05-06T12:56:04.040Z,45.00
2019-05-06T12:58:32.646Z,44.20
2019-05-06T13:01:04.034Z,43.40
2019-05-06T13:03:32.572Z,44.00
2019-05-06T13:06:07.474Z,43.30
2019-05-06T13:08:51.725Z,44.80
2019-05-06T13:11:02.601Z,44.80
2019-05-06T13:13:33.211Z,44.90
2019-05-06T13:16:02.772Z,43.90
2019-05-06T13:18:32.760Z,44.50
2019-05-06T13:21:04.419Z,44.80
2019-05-06T13:23:35.051Z,44.60
2019-05-06T13:26:03.433Z,46.20
2019-05-06T13:28:33.580Z,45.30
2019-05-06T13:31:15.786Z,45.90
2019-05-06T13:33:46.314Z,46.10
2019-05-06T13:36:14.882Z,46.40
2019-05-06T13:38:43.478Z,48.10
2019-05-06T13:41:12.684Z,48.60
2019-05-06T13:43:43.634Z,48.70
2019-05-06T13:46:14.114Z,48.80
2019-05-06T13:49:02.909Z,49.50
2019-05-06T13:51:42.998Z,48.80
2019-05-06T13:54:15.769Z,49.30
2019-05-06T13:56:42.590Z,48.90
2019-05-06T13:59:12.906Z,47.60
2019-05-06T14:01:44.056Z,48.30
2019-05-06T14:04:14.487Z,48.30
2019-05-06T14:06:43.426Z,47.80
2019-05-06T14:09:27.913Z,47.60
2019-05-06T14:11:42.483Z,47.60
2019-05-06T14:14:12.511Z,47.70
2019-05-06T14:16:42.634Z,48.30
2019-05-06T14:19:13.216Z,49.30
2019-05-06T14:21:43.247Z,49.60
2019-05-06T14:24:13.330Z,50.20
2019-05-06T14:26:58.471Z,50.60
2019-05-06T14:29:33.181Z,50.80
2019-05-06T14:32:01.992Z,51.30
2019-05-06T14:34:32.507Z,50.00
2019-05-06T14:37:00.874Z,50.20
2019-05-06T14:39:48.537Z,49.40
2019-05-06T14:42:04.226Z,49.10
2019-05-06T14:44:32.786Z,49.50
2019-05-06T14:47:08.748Z,48.40
2019-05-06T14:49:37.158Z,48.10
2019-05-06T14:52:05.604Z,47.50
2019-05-06T14:54:35.887Z,48.50
2019-05-06T14:57:14.210Z,48.30
2019-05-06T14:59:42.767Z,49.30
2019-05-06T15:02:13.234Z,48.30
2019-05-06T15:04:43.476Z,48.20
2019-05-06T15:07:12.778Z,49.10
2019-05-06T15:09:57.719Z,50.00
2019-05-06T15:12:14.255Z,50.70
2019-05-06T15:14:43.212Z,50.40
2019-05-06T15:17:11.633Z,50.60
2019-05-06T15:19:42.685Z,50.40
2019-05-06T15:22:10.361Z,51.10
2019-05-06T15:24:38.870Z,51.00
2019-05-06T15:27:07.633Z,49.90
2019-05-06T15:29:36.216Z,50.30
2019-05-06T15:32:06.494Z,49.30
2019-05-06T15:34:42.288Z,48.30
2019-05-06T15:37:13.823Z,48.10
2019-05-06T15:39:43.763Z,49.20
2019-05-06T15:42:12.920Z,49.60
2019-05-06T15:44:42.462Z,49.50
2019-05-06T15:47:13.205Z,49.40
2019-05-06T15:49:41.986Z,48.80
2019-05-06T15:52:12.477Z,50.00
2019-05-06T15:54:42.870Z,50.30
2019-05-06T15:57:11.242Z,50.40
2019-05-06T15:59:42.168Z,50.70
2019-05-06T16:02:10.215Z,51.30
2019-05-06T16:04:38.842Z,51.30
2019-05-06T16:07:07.515Z,51.90
2019-05-06T16:09:36.114Z,52.10
2019-05-06T16:12:04.787Z,52.30
2019-05-06T16:14:34.861Z,52.60
2019-05-06T16:17:03.856Z,52.60
2019-05-06T16:19:33.248Z,52.60
2019-05-06T16:22:04.105Z,51.90
2019-05-06T16:24:42.843Z,51.30
2019-05-06T16:27:12.401Z,51.70
2019-05-06T16:29:42.919Z,52.10
2019-05-06T16:32:10.872Z,52.10
2019-05-06T16:34:39.461Z,52.30
2019-05-06T16:37:08.049Z,52.90
2019-05-06T16:39:36.626Z,53.80
2019-05-06T16:42:05.389Z,53.50
2019-05-06T16:44:34.130Z,53.80
2019-05-06T16:47:03.041Z,54.10
2019-05-06T16:49:33.214Z,54.70
2019-05-06T16:52:02.642Z,55.20
2019-05-06T16:54:34.393Z,55.00
2019-05-06T16:57:03.709Z,55.20
2019-05-06T16:59:33.471Z,55.30
2019-05-06T17:02:03.775Z,56.20
2019-05-06T17:04:34.087Z,56.80
2019-05-06T17:07:03.082Z,57.40
2019-05-06T17:09:32.739Z,57.70
2019-05-06T17:12:04.447Z,57.50
2019-05-06T17:14:32.598Z,57.20
2019-05-06T17:17:03.182Z,57.70
2019-05-06T17:19:32.401Z,57.90
2019-05-06T17:22:03.056Z,58.20
2019-05-06T17:24:33.106Z,58.20
2019-05-06T17:27:02.744Z,58.10
2019-05-06T17:29:51.086Z,58.90
2019-05-06T17:32:23.755Z,58.50
2019-05-06T17:34:57.393Z,59.10
2019-05-06T17:37:42.535Z,59.20
2019-05-06T17:40:14.036Z,59.50
2019-05-06T17:42:43.069Z,59.90
2019-05-06T17:45:31.988Z,59.80
2019-05-06T17:48:02.795Z,60.10
2019-05-06T17:50:32.673Z,60.40
2019-05-06T17:53:01.872Z,61.50
2019-05-06T17:55:32.455Z,61.70
2019-05-06T17:58:02.518Z,62.50
2019-05-06T18:00:32.385Z,61.70
2019-05-06T18:03:02.484Z,62.50
2019-05-06T18:05:32.501Z,62.10
2019-05-06T18:08:02.935Z,62.30
2019-05-06T18:10:33.489Z,63.20
2019-05-06T18:13:03.061Z,64.20
2019-05-06T18:15:32.614Z,64.30
2019-05-06T18:18:02.165Z,64.70
2019-05-06T18:20:33.550Z,64.90
2019-05-06T18:23:02.099Z,65.30
2019-05-06T18:25:32.891Z,65.90
2019-05-06T18:28:01.016Z,66.00
2019-05-06T18:30:33.558Z,66.40
2019-05-06T18:32:59.722Z,66.80
2019-05-06T18:35:28.182Z,67.20
2019-05-06T18:37:56.768Z,67.70
2019-05-06T18:40:25.334Z,68.60
2019-05-06T18:42:53.858Z,69.10
2019-05-06T18:45:22.494Z,69.40
2019-05-06T18:47:53.007Z,69.20
2019-05-06T18:50:22.091Z,70.40
2019-05-06T18:52:52.861Z,70.40
2019-05-06T18:55:22.335Z,70.70
2019-05-06T18:57:52.902Z,72.60
2019-05-06T19:00:22.457Z,78.90
2019-05-06T19:02:52.263Z,79.30
2019-05-06T19:05:27.111Z,78.80
2019-05-06T19:07:55.665Z,78.40
2019-05-06T19:10:25.907Z,78.60
2019-05-06T19:12:54.515Z,80.00
2019-05-06T19:15:23.096Z,80.50
2019-05-06T19:17:52.649Z,81.80
2019-05-06T19:20:21.939Z,82.80
2019-05-06T19:22:53.459Z,84.40
2019-05-06T19:25:22.677Z,85.60
2019-05-06T19:27:53.093Z,87.00
2019-05-06T19:30:23.410Z,87.50
2019-05-06T19:32:53.109Z,87.20
2019-05-06T19:35:21.773Z,88.50
2019-05-06T19:37:50.281Z,89.90
2019-05-06T19:40:18.982Z,90.40
2019-05-06T19:42:50.149Z,90.90
2019-05-06T19:45:17.819Z,91.10
2019-05-06T19:47:46.245Z,91.30
2019-05-06T19:50:15.099Z,91.60
2019-05-06T19:52:43.563Z,91.80
2019-05-06T19:55:12.407Z,91.70
2019-05-06T19:57:42.974Z,91.70
2019-05-06T20:00:11.747Z,91.90
2019-05-06T20:02:40.309Z,91.90
2019-05-06T20:05:12.093Z,91.50
2019-05-06T20:07:42.913Z,91.40
2019-05-06T20:10:25.001Z,91.70
2019-05-06T20:13:02.765Z,92.00
2019-05-06T20:15:42.833Z,92.40
2019-05-06T20:18:11.453Z,92.80
2019-05-06T20:20:42.064Z,93.70
2019-05-06T20:23:12.519Z,93.90
2019-05-06T20:25:42.610Z,93.70
2019-05-06T20:28:13.155Z,93.30
2019-05-06T20:30:42.286Z,93.10
2019-05-06T20:33:13.013Z,93.00
2019-05-06T20:35:43.203Z,93.10
2019-05-06T20:38:12.576Z,93.00
2019-05-06T20:40:43.017Z,93.00
2019-05-06T20:43:19.330Z,93.40
2019-05-06T20:45:42.860Z,93.40
2019-05-06T20:48:12.871Z,93.60
2019-05-06T20:50:42.972Z,93.80
2019-05-06T20:53:12.101Z,94.10
2019-05-06T20:55:43.119Z,94.20
2019-05-06T20:58:12.251Z,93.90
2019-05-06T21:00:43.030Z,93.70
2019-05-06T21:03:12.174Z,93.80
2019-05-06T21:05:43.237Z,93.80
2019-05-06T21:08:13.011Z,93.70
2019-05-06T21:10:43.647Z,93.60
2019-05-06T21:13:13.377Z,93.60
2019-05-06T21:15:43.167Z,93.80
2019-05-06T21:18:12.237Z,93.70
2019-05-06T21:20:43.363Z,93.80
2019-05-06T21:23:11.361Z,93.80
2019-05-06T21:25:39.968Z,93.70
2019-05-06T21:28:08.582Z,93.60
2019-05-06T21:30:37.234Z,93.60
2019-05-06T21:33:05.645Z,93.40
2019-05-06T21:35:34.470Z,93.40
2019-05-06T21:38:02.922Z,93.40
2019-05-06T21:40:32.282Z,93.50
2019-05-06T21:43:02.072Z,93.60
2019-05-06T21:45:32.903Z,93.70
2019-05-06T21:48:02.822Z,93.70
2019-05-06T21:50:33.110Z,93.50
2019-05-06T21:53:02.692Z,93.60
2019-05-06T21:55:32.349Z,93.80
2019-05-06T21:58:02.171Z,94.00
2019-05-06T22:00:43.449Z,93.70
2019-05-06T22:03:13.442Z,93.50
2019-05-06T22:05:42.158Z,93.40
2019-05-06T22:08:12.669Z,93.40
2019-05-06T22:10:42.157Z,93.30
2019-05-06T22:13:14.288Z,93.30
2019-05-06T22:15:42.132Z,93.20
2019-05-06T22:18:12.523Z,93.00
2019-05-06T22:20:58.745Z,93.00
2019-05-06T22:23:28.865Z,93.00
2019-05-06T22:26:08.573Z,93.00
2019-05-06T22:28:27.582Z,92.80
2019-05-06T22:30:56.095Z,92.70
2019-05-06T22:33:24.574Z,92.80
2019-05-06T22:35:54.932Z,93.20
2019-05-06T22:38:23.475Z,93.50
2019-05-06T22:40:52.993Z,93.00
2019-05-06T22:43:22.000Z,92.90
2019-05-06T22:45:50.551Z,93.10
2019-05-06T22:48:18.990Z,92.80
2019-05-06T22:50:49.126Z,92.60
2019-05-06T22:53:17.620Z,93.00
2019-05-06T22:55:46.092Z,93.70
2019-05-06T22:58:14.579Z,92.90
2019-05-06T23:00:44.771Z,92.20
2019-05-06T23:03:14.808Z,92.50
2019-05-06T23:05:43.282Z,92.40
2019-05-06T23:08:12.318Z,92.70
2019-05-06T23:10:42.293Z,92.60
2019-05-06T23:13:12.430Z,93.10
2019-05-06T23:15:42.071Z,93.40
2019-05-06T23:18:10.786Z,93.00
2019-05-06T23:20:39.388Z,92.80
2019-05-06T23:23:07.965Z,92.90
2019-05-06T23:25:36.487Z,92.80
2019-05-06T23:28:05.247Z,93.10
2019-05-06T23:30:33.808Z,93.00
2019-05-06T23:33:02.382Z,92.40
2019-05-06T23:35:30.895Z,92.20
2019-05-06T23:38:35.467Z,92.00
2019-05-06T23:41:42.190Z,92.00
2019-05-06T23:44:46.391Z,92.30
2019-05-06T23:47:52.979Z,92.70
2019-05-06T23:50:56.699Z,91.90
2019-05-06T23:54:03.058Z,91.80
2019-05-06T23:56:42.882Z,92.20
2019-05-06T23:59:12.847Z,91.70
